createdAt,value
2022-08-26T00:00:23.789Z,14.43
2022-08-26T00:05:29.782Z,15.35
2022-08-26T00:10:37.331Z,14.60
2022-08-26T00:15:43.219Z,13.55
2022-08-26T00:20:48.427Z,16.55
2022-08-26T00:25:55.775Z,14.27
2022-08-26T00:31:01.610Z,14.07
2022-08-26T00:36:06.808Z,12.05
2022-08-26T00:41:14.061Z,15.52
2022-08-26T00:46:24.022Z,15.00
2022-08-26T00:51:31.040Z,13.38
2022-08-26T00:56:41.350Z,15.60
2022-08-26T01:01:47.564Z,14.60
2022-08-26T01:06:54.611Z,14.25
2022-08-26T01:12:05.329Z,14.18
2022-08-26T01:17:11.058Z,16.58
2022-08-26T01:22:20.333Z,15.25
2022-08-26T01:27:32.404Z,17.98
2022-08-26T01:32:39.052Z,14.70
2022-08-26T01:37:44.469Z,13.13
2022-08-26T01:42:53.237Z,14.05
2022-08-26T01:48:01.312Z,15.68
2022-08-26T01:53:09.500Z,15.07
2022-08-26T01:58:23.924Z,14.60
2022-08-26T02:03:28.851Z,13.68
2022-08-26T02:08:39.679Z,15.50
2022-08-26T02:13:49.946Z,14.32
2022-08-26T02:18:57.918Z,13.52
2022-08-26T02:24:12.092Z,16.00
2022-08-26T02:29:23.630Z,22.88
2022-08-26T02:34:31.342Z,15.02
2022-08-26T02:39:37.888Z,15.63
2022-08-26T02:44:45.048Z,14.95
2022-08-26T02:49:50.018Z,17.90
2022-08-26T02:54:54.985Z,14.05
2022-08-26T03:00:03.594Z,17.50
2022-08-26T03:05:09.433Z,16.77
2022-08-26T03:10:14.495Z,16.77
2022-08-26T03:15:23.339Z,17.50
2022-08-26T03:20:28.059Z,22.95
2022-08-26T03:25:41.009Z,20.48
2022-08-26T03:30:49.327Z,15.98
2022-08-26T03:35:55.768Z,12.27
2022-08-26T03:41:01.306Z,18.13
2022-08-26T03:46:10.538Z,14.52
2022-08-26T03:51:18.395Z,17.30
2022-08-26T03:56:23.641Z,13.13
2022-08-26T04:01:31.560Z,16.33
2022-08-26T04:06:39.731Z,11.75
2022-08-26T04:11:46.444Z,15.55
2022-08-26T04:16:59.510Z,12.27
2022-08-26T04:22:04.198Z,13.95
2022-08-26T04:27:10.490Z,13.48
2022-08-26T04:32:18.300Z,15.23
2022-08-26T04:37:22.916Z,16.70
2022-08-26T04:42:27.560Z,18.30
2022-08-26T04:47:35.002Z,20.05
2022-08-26T04:52:39.544Z,16.83
2022-08-26T04:57:44.252Z,19.40
2022-08-26T05:02:51.587Z,14.02
2022-08-26T05:07:56.338Z,15.45
2022-08-26T05:13:03.580Z,17.45
2022-08-26T05:18:20.836Z,15.50
2022-08-26T05:23:26.759Z,23.30
2022-08-26T05:28:32.429Z,19.70
2022-08-26T05:33:41.364Z,15.32
2022-08-26T05:38:46.453Z,16.13
2022-08-26T05:43:51.028Z,19.40
2022-08-26T05:48:58.549Z,19.00
2022-08-26T05:54:06.967Z,20.48
2022-08-26T05:59:15.989Z,19.80
2022-08-26T06:04:29.336Z,17.05
2022-08-26T06:09:34.376Z,15.50
2022-08-26T06:14:38.864Z,14.75
2022-08-26T06:19:46.564Z,15.73
2022-08-26T06:25:03.674Z,12.93
2022-08-26T06:30:10.768Z,14.73
2022-08-26T06:35:18.338Z,14.98
2022-08-26T06:40:24.631Z,16.55
2022-08-26T06:45:29.642Z,12.27
2022-08-26T06:50:39.528Z,14.70
2022-08-26T06:55:45.854Z,16.00
2022-08-26T07:00:50.499Z,13.52
2022-08-26T07:06:04.267Z,17.33
2022-08-26T07:11:10.294Z,13.52
2022-08-26T07:16:17.830Z,19.75
2022-08-26T07:21:26.122Z,15.35
2022-08-26T07:26:33.150Z,16.63
2022-08-26T07:31:42.859Z,12.23
2022-08-26T07:36:50.473Z,12.77
2022-08-26T07:41:56.050Z,18.45
2022-08-26T07:47:00.575Z,14.18
2022-08-26T07:52:09.340Z,13.60
2022-08-26T07:57:15.758Z,14.57
2022-08-26T08:02:23.830Z,13.18
2022-08-26T08:07:44.286Z,14.05
2022-08-26T08:12:50.462Z,9.52
2022-08-26T08:18:00.609Z,13.65
2022-08-26T08:23:08.159Z,12.80
2022-08-26T08:28:12.785Z,14.32
2022-08-26T08:33:17.498Z,12.43
2022-08-26T08:38:25.999Z,13.10
2022-08-26T08:43:37.690Z,12.73
2022-08-26T08:48:48.773Z,14.70
2022-08-26T08:59:11.182Z,16.35
2022-08-26T09:04:33.282Z,12.00
2022-08-26T09:09:44.547Z,13.38
2022-08-26T09:14:51.857Z,12.15
2022-08-26T09:20:03.848Z,14.45
2022-08-26T09:25:14.104Z,13.32
2022-08-26T09:30:26.557Z,12.73
2022-08-26T09:35:34.154Z,13.10
2022-08-26T09:40:41.560Z,19.83
2022-08-26T09:45:58.418Z,14.63
2022-08-26T09:51:05.991Z,13.35
2022-08-26T09:56:19.910Z,14.40
2022-08-26T10:01:32.320Z,16.80
2022-08-26T10:06:41.338Z,12.60
2022-08-26T10:11:50.765Z,16.38
2022-08-26T10:17:01.616Z,12.30
2022-08-26T10:22:14.953Z,12.75
2022-08-26T10:27:28.584Z,14.65
2022-08-26T10:32:40.839Z,10.60
2022-08-26T10:37:51.726Z,12.63
2022-08-26T10:43:09.941Z,12.15
2022-08-26T10:48:22.338Z,9.40
2022-08-26T10:53:42.550Z,16.05
2022-08-26T10:59:04.577Z,9.85
2022-08-26T11:04:25.591Z,9.65
2022-08-26T11:09:54.537Z,10.98
2022-08-26T11:15:02.051Z,12.75
2022-08-26T11:20:13.743Z,11.65
2022-08-26T11:25:27.748Z,12.38
2022-08-26T11:30:56.987Z,10.63
2022-08-26T11:36:12.026Z,10.32
2022-08-26T11:41:29.379Z,10.30
2022-08-26T11:47:11.357Z,9.45
2022-08-26T11:52:38.376Z,9.45
2022-08-26T11:58:01.056Z,10.20
2022-08-26T12:03:38.934Z,12.00
2022-08-26T12:08:48.219Z,8.98
2022-08-26T12:14:02.664Z,11.88
2022-08-26T12:19:27.486Z,8.25
2022-08-26T12:24:35.191Z,9.82
2022-08-26T12:29:40.058Z,12.48
2022-08-26T12:34:46.351Z,14.30
2022-08-26T12:39:54.284Z,11.10
2022-08-26T12:45:04.385Z,10.23
2022-08-26T12:50:12.384Z,9.02
2022-08-26T12:55:26.020Z,12.90
2022-08-26T13:00:38.027Z,7.75
2022-08-26T13:05:42.970Z,8.20
2022-08-26T13:10:50.511Z,8.60
2022-08-26T13:15:55.712Z,9.27
2022-08-26T13:21:00.574Z,7.75
2022-08-26T13:26:08.002Z,6.47
2022-08-26T13:31:17.864Z,8.57
2022-08-26T13:36:23.360Z,5.47
2022-08-26T13:41:31.970Z,5.65
2022-08-26T13:46:37.180Z,7.72
2022-08-26T13:51:42.683Z,8.80
2022-08-26T13:56:50.125Z,7.30
2022-08-26T14:02:02.923Z,9.55
2022-08-26T14:07:10.990Z,6.60
2022-08-26T14:12:18.386Z,8.52
2022-08-26T14:17:26.289Z,8.73
2022-08-26T14:22:37.922Z,7.32
2022-08-26T14:27:48.010Z,13.55
2022-08-26T14:32:56.652Z,16.52
2022-08-26T14:38:01.261Z,5.45
2022-08-26T14:43:09.668Z,13.95
2022-08-26T14:48:14.995Z,7.75
2022-08-26T14:53:32.221Z,19.92
2022-08-26T14:58:39.558Z,12.95
2022-08-26T15:03:44.903Z,8.07
2022-08-26T15:08:49.830Z,13.82
2022-08-26T15:13:57.482Z,9.85
2022-08-26T15:19:04.312Z,8.45
2022-08-26T15:24:09.133Z,12.00
2022-08-26T15:29:17.030Z,12.07
2022-08-26T15:34:22.905Z,9.63
2022-08-26T15:39:27.818Z,12.98
2022-08-26T15:44:36.999Z,9.57
2022-08-26T15:49:46.310Z,9.75
2022-08-26T17:14:43.857Z,5.68
2022-08-26T17:19:50.505Z,7.25
2022-08-26T17:24:55.164Z,4.95
2022-08-26T17:30:02.381Z,5.03
2022-08-26T17:35:09.395Z,5.53
2022-08-26T17:40:29.299Z,6.80
2022-08-26T17:45:36.655Z,5.40
2022-08-26T17:50:41.797Z,4.03
2022-08-26T17:55:46.514Z,5.15
2022-08-26T18:00:55.821Z,4.45
2022-08-26T18:06:00.524Z,5.43
2022-08-26T18:11:10.159Z,4.60
2022-08-26T18:16:19.453Z,4.30
2022-08-26T18:21:26.456Z,4.90
2022-08-26T18:26:39.076Z,6.85
2022-08-26T18:31:49.638Z,6.60
2022-08-26T18:36:57.716Z,5.10
2022-08-26T18:42:10.397Z,6.75
2022-08-26T18:47:26.914Z,5.15
2022-08-26T18:52:31.441Z,4.70
2022-08-26T18:57:45.140Z,6.18
2022-08-26T19:02:56.004Z,7.00
2022-08-26T19:08:03.258Z,6.10
2022-08-26T19:13:09.389Z,4.90
2022-08-26T19:18:20.073Z,5.90
2022-08-26T19:23:32.685Z,4.55
2022-08-26T19:28:39.723Z,4.97
2022-08-26T19:33:47.225Z,4.72
2022-08-26T19:38:55.922Z,5.15
2022-08-26T19:44:01.854Z,4.30
2022-08-26T19:49:11.241Z,3.88
2022-08-26T19:54:16.044Z,5.32
2022-08-26T19:59:20.823Z,4.55
2022-08-26T20:04:27.988Z,4.93
2022-08-26T20:09:34.141Z,3.38
2022-08-26T20:14:39.365Z,6.50
2022-08-26T20:19:59.013Z,4.00
2022-08-26T20:25:03.794Z,6.30
2022-08-26T20:30:11.094Z,6.15
2022-08-26T20:35:18.811Z,4.90
2022-08-26T20:40:24.210Z,4.65
2022-08-26T20:45:28.885Z,6.68
2022-08-26T20:50:36.195Z,4.88
2022-08-26T20:55:40.922Z,5.38
2022-08-26T21:00:45.603Z,6.90
2022-08-26T21:05:53.197Z,11.30
2022-08-26T21:10:57.793Z,10.02
2022-08-26T21:16:02.879Z,6.68
2022-08-26T21:21:11.368Z,7.80
2022-08-26T21:26:19.041Z,8.60
2022-08-26T21:31:25.242Z,6.75
2022-08-26T21:36:32.557Z,7.03
2022-08-26T21:41:37.108Z,6.40
2022-08-26T21:46:41.827Z,8.35
2022-08-26T21:51:50.527Z,8.88
2022-08-26T21:56:55.152Z,6.30
2022-08-26T22:02:00.382Z,6.78
2022-08-26T22:07:07.893Z,7.63
2022-08-26T22:12:13.760Z,10.27
2022-08-26T22:17:18.379Z,7.18
2022-08-26T22:22:33.506Z,8.75
2022-08-26T22:27:40.560Z,8.38
2022-08-26T22:32:47.658Z,8.15
2022-08-26T22:37:54.961Z,7.93
2022-08-26T22:43:02.387Z,9.48
2022-08-26T22:48:08.524Z,10.75
2022-08-26T22:53:16.443Z,11.02
2022-08-26T22:58:21.846Z,9.85
2022-08-26T23:03:36.662Z,11.35
2022-08-26T23:08:46.455Z,11.85
2022-08-26T23:13:51.029Z,11.90
2022-08-26T23:18:55.852Z,19.25
2022-08-26T23:24:03.651Z,17.35
2022-08-26T23:29:10.482Z,18.33
2022-08-26T23:34:29.393Z,18.02
2022-08-26T23:39:38.155Z,18.20
2022-08-26T23:44:42.789Z,16.38
2022-08-26T23:49:47.429Z,19.52
2022-08-26T23:54:54.830Z,21.40
2022-08-26T23:59:59.644Z,33.53
